createdAt,value
2022-07-26T00:03:06.548Z,25.52
2022-07-26T00:08:11.245Z,25.46
2022-07-26T00:13:13.270Z,25.35
2022-07-26T00:18:15.842Z,25.30
2022-07-26T00:23:19.423Z,25.20
2022-07-26T00:28:21.356Z,25.21
2022-07-26T00:33:23.187Z,25.22
2022-07-26T00:38:25.154Z,25.14
2022-07-26T00:43:26.900Z,24.80
2022-07-26T00:48:28.678Z,24.72
2022-07-26T00:53:30.413Z,24.71
2022-07-26T00:58:32.039Z,24.74
2022-07-26T01:03:39.371Z,24.79
2022-07-26T01:08:41.720Z,24.53
2022-07-26T01:13:49.162Z,24.62
2022-07-26T01:18:50.999Z,24.71
2022-07-26T01:23:52.691Z,24.66
2022-07-26T01:28:54.534Z,24.74
2022-07-26T01:33:56.573Z,25.15
2022-07-26T01:38:59.008Z,25.45
2022-07-26T01:44:01.106Z,25.47
2022-07-26T01:49:03.396Z,25.41
2022-07-26T01:54:05.714Z,25.29
2022-07-26T01:59:07.613Z,25.22
2022-07-26T02:04:29.441Z,25.12
2022-07-26T02:09:32.046Z,25.06
2022-07-26T02:14:41.581Z,25.08
2022-07-26T02:19:43.252Z,25.07
2022-07-26T02:24:45.221Z,25.02
2022-07-26T02:29:47.822Z,24.96
2022-07-26T02:34:49.442Z,24.92
2022-07-26T02:39:51.043Z,24.82
2022-07-26T02:44:54.072Z,24.51
2022-07-26T02:49:56.103Z,24.25
2022-07-26T02:54:58.098Z,24.00
2022-07-26T02:59:59.739Z,23.79
2022-07-26T03:05:02.352Z,23.60
2022-07-26T03:10:04.808Z,23.35
2022-07-26T03:15:06.913Z,23.02
2022-07-26T03:20:09.339Z,22.63
2022-07-26T03:25:11.089Z,22.43
2022-07-26T03:30:13.647Z,22.19
2022-07-26T03:35:15.340Z,22.13
2022-07-26T03:40:18.193Z,22.04
2022-07-26T03:45:19.793Z,21.95
2022-07-26T03:50:21.611Z,21.93
2022-07-26T03:55:41.762Z,21.90
2022-07-26T04:00:43.444Z,21.85
2022-07-26T04:05:48.619Z,21.83
2022-07-26T04:10:53.562Z,21.91
2022-07-26T04:15:55.250Z,21.94
2022-07-26T04:20:57.287Z,21.96
2022-07-26T04:25:59.298Z,21.95
2022-07-26T04:31:01.739Z,21.94
2022-07-26T04:36:03.825Z,21.88
2022-07-26T04:41:05.861Z,21.94
2022-07-26T04:46:07.549Z,21.94
2022-07-26T04:51:09.624Z,21.97
2022-07-26T04:56:11.241Z,21.96
2022-07-26T05:01:12.955Z,22.00
2022-07-26T05:06:14.649Z,22.00
2022-07-26T05:11:16.465Z,22.03
2022-07-26T05:16:18.113Z,22.06
2022-07-26T05:21:20.354Z,22.00
2022-07-26T05:26:22.055Z,22.02
2022-07-26T05:31:23.748Z,22.03
2022-07-26T05:36:25.440Z,21.96
2022-07-26T05:41:27.478Z,21.87
2022-07-26T05:46:29.339Z,21.81
2022-07-26T05:51:31.597Z,21.76
2022-07-26T05:56:34.146Z,21.75
2022-07-26T06:01:36.200Z,21.76
2022-07-26T06:06:37.883Z,21.72
2022-07-26T06:11:39.522Z,21.64
2022-07-26T06:16:41.485Z,21.68
2022-07-26T06:21:45.745Z,21.54
2022-07-26T06:26:54.777Z,21.50
2022-07-26T06:31:58.408Z,21.47
2022-07-26T06:37:00.804Z,21.45
2022-07-26T06:42:02.437Z,21.51
2022-07-26T06:47:04.195Z,21.61
2022-07-26T06:52:05.795Z,21.66
2022-07-26T06:57:07.893Z,21.79
2022-07-26T07:02:09.871Z,21.81
2022-07-26T07:07:11.653Z,21.82
2022-07-26T07:12:15.223Z,22.01
2022-07-26T07:17:20.388Z,22.34
2022-07-26T07:22:22.438Z,22.64
2022-07-26T07:27:24.477Z,22.79
2022-07-26T07:32:29.049Z,22.68
2022-07-26T07:37:52.237Z,22.61
2022-07-26T07:42:54.894Z,22.44
2022-07-26T07:47:56.836Z,22.41
2022-07-26T07:52:59.332Z,22.41
2022-07-26T07:58:03.791Z,22.46
2022-07-26T08:03:05.710Z,22.54
2022-07-26T08:08:08.176Z,22.64
2022-07-26T08:13:10.144Z,22.66
2022-07-26T08:18:12.913Z,22.57
2022-07-26T08:23:15.821Z,22.52
2022-07-26T08:28:37.761Z,22.58
2022-07-26T08:33:40.757Z,22.62
2022-07-26T08:38:43.889Z,22.59
2022-07-26T08:43:51.558Z,22.57
2022-07-26T08:48:56.928Z,22.51
2022-07-26T08:54:07.848Z,22.44
2022-07-26T08:59:20.103Z,22.45
2022-07-26T09:04:32.608Z,22.53
2022-07-26T09:09:56.284Z,22.57
2022-07-26T09:15:00.721Z,22.64
2022-07-26T09:20:04.758Z,22.65
2022-07-26T09:25:20.715Z,22.62
2022-07-26T09:30:22.834Z,22.68
2022-07-26T09:35:50.099Z,22.76
2022-07-26T09:40:50.621Z,22.81
2022-07-26T09:46:05.081Z,22.92
2022-07-26T09:51:07.774Z,23.05
2022-07-26T09:56:09.642Z,23.26
2022-07-26T10:01:11.468Z,23.34
2022-07-26T10:06:13.233Z,23.43
2022-07-26T10:11:15.365Z,23.53
2022-07-26T10:16:32.957Z,23.67
2022-07-26T10:21:35.659Z,23.73
2022-07-26T10:26:39.052Z,23.88
2022-07-26T10:31:40.764Z,23.99
2022-07-26T10:36:42.419Z,24.03
2022-07-26T10:41:57.254Z,24.17
2022-07-26T10:47:25.352Z,24.19
2022-07-26T10:52:28.344Z,24.26
2022-07-26T10:57:41.813Z,24.34
2022-07-26T11:02:47.380Z,24.46
2022-07-26T11:07:56.660Z,24.51
2022-07-26T11:13:06.219Z,24.59
2022-07-26T11:18:07.977Z,24.67
2022-07-26T11:23:29.663Z,24.68
2022-07-26T11:29:06.342Z,24.75
2022-07-26T11:34:17.149Z,24.89
2022-07-26T11:39:28.038Z,25.01
2022-07-26T11:44:30.138Z,25.17
2022-07-26T11:50:01.180Z,25.35
2022-07-26T11:54:55.979Z,25.49
2022-07-26T11:59:58.722Z,25.68
2022-07-26T12:05:21.048Z,25.90
2022-07-26T12:10:23.401Z,25.84
2022-07-26T12:15:25.004Z,26.05
2022-07-26T12:20:28.208Z,25.84
2022-07-26T12:25:30.056Z,25.95
2022-07-26T12:30:36.080Z,25.30
2022-07-26T12:35:38.123Z,24.48
2022-07-26T12:40:41.580Z,23.77
2022-07-26T12:45:43.590Z,22.98
2022-07-26T12:50:45.306Z,22.75
2022-07-26T12:55:47.130Z,23.04
2022-07-26T13:00:49.258Z,22.57
2022-07-26T13:05:50.914Z,22.02
2022-07-26T13:10:56.738Z,22.24
2022-07-26T13:16:01.459Z,22.46
2022-07-26T13:21:03.204Z,22.64
2022-07-26T13:26:07.884Z,22.72
2022-07-26T13:31:12.847Z,22.80
2022-07-26T13:36:14.972Z,22.73
2022-07-26T13:41:17.198Z,22.78
2022-07-26T13:46:18.880Z,22.86
2022-07-26T13:51:20.643Z,22.86
2022-07-26T13:56:22.274Z,22.91
2022-07-26T14:01:44.821Z,22.97
2022-07-26T14:06:45.721Z,23.10
2022-07-26T14:11:47.374Z,23.19
2022-07-26T14:16:49.575Z,23.18
2022-07-26T14:21:59.867Z,23.19
2022-07-26T14:27:02.282Z,23.23
2022-07-26T14:32:05.401Z,23.21
2022-07-26T14:37:08.489Z,23.24
2022-07-26T14:42:29.359Z,23.25
2022-07-26T14:47:30.960Z,23.30
2022-07-26T14:52:32.612Z,23.35
2022-07-26T14:57:34.542Z,23.32
2022-07-26T15:02:42.511Z,23.39
2022-07-26T15:07:44.695Z,23.30
2022-07-26T15:12:46.310Z,23.22
2022-07-26T15:17:48.126Z,23.16
2022-07-26T15:22:51.118Z,23.13
2022-07-26T15:27:53.109Z,23.10
2022-07-26T15:32:56.145Z,23.07
2022-07-26T15:37:57.883Z,23.03
2022-07-26T15:43:00.761Z,23.02
2022-07-26T15:48:15.774Z,23.05
2022-07-26T15:53:18.975Z,23.01
2022-07-26T15:58:21.214Z,23.00
2022-07-26T16:03:23.093Z,22.92
2022-07-26T16:08:24.797Z,22.91
2022-07-26T16:13:26.702Z,22.93
2022-07-26T16:18:28.335Z,22.86
2022-07-26T16:23:30.166Z,22.86
2022-07-26T16:28:32.109Z,22.88
2022-07-26T16:33:33.761Z,22.81
2022-07-26T16:38:35.890Z,22.78
2022-07-26T16:43:37.506Z,22.72
2022-07-26T16:48:39.320Z,22.71
2022-07-26T16:53:41.111Z,22.62
2022-07-26T16:58:42.789Z,22.60
2022-07-26T17:03:44.446Z,22.61
2022-07-26T17:08:46.330Z,22.63
2022-07-26T17:13:47.965Z,22.75
2022-07-26T17:18:49.593Z,22.79
2022-07-26T17:23:51.778Z,22.76
2022-07-26T17:28:53.385Z,22.76
2022-07-26T17:33:55.201Z,22.73
2022-07-26T17:38:57.683Z,22.72
2022-07-26T17:44:04.754Z,22.65
2022-07-26T17:49:06.623Z,22.62
2022-07-26T17:54:09.365Z,22.54
2022-07-26T17:59:12.887Z,22.50
2022-07-26T18:04:16.236Z,22.43
2022-07-26T18:09:17.851Z,22.38
2022-07-26T18:14:19.902Z,22.30
2022-07-26T18:19:21.482Z,22.22
2022-07-26T18:24:23.450Z,22.18
2022-07-26T18:29:25.256Z,22.13
2022-07-26T18:34:27.630Z,22.07
2022-07-26T18:39:32.824Z,22.00
2022-07-26T18:44:38.257Z,21.88
2022-07-26T18:49:39.887Z,21.80
2022-07-26T18:54:42.709Z,21.76
2022-07-26T18:59:44.366Z,21.67
2022-07-26T19:04:46.031Z,21.60
2022-07-26T19:09:47.750Z,21.54
2022-07-26T19:14:50.033Z,21.47
2022-07-26T19:19:52.282Z,21.41
2022-07-26T19:24:53.930Z,21.37
2022-07-26T19:29:57.064Z,21.30
2022-07-26T19:34:59.194Z,21.28
2022-07-26T19:40:01.184Z,21.25
2022-07-26T19:45:03.457Z,21.19
2022-07-26T19:50:08.350Z,21.16
2022-07-26T19:55:10.339Z,21.12
2022-07-26T20:00:12.558Z,21.07
2022-07-26T20:05:14.311Z,20.98
2022-07-26T20:10:15.993Z,20.94
2022-07-26T20:15:17.842Z,20.89
2022-07-26T20:20:20.065Z,20.86
2022-07-26T20:25:22.465Z,20.83
2022-07-26T20:30:24.522Z,20.81
2022-07-26T20:35:26.410Z,20.74
2022-07-26T20:40:28.875Z,20.70
2022-07-26T20:45:30.615Z,20.64
2022-07-26T20:50:32.931Z,20.59
2022-07-26T20:55:34.876Z,20.58
2022-07-26T21:00:36.826Z,20.60
2022-07-26T21:05:38.928Z,20.59
2022-07-26T21:10:40.551Z,20.56
2022-07-26T21:15:42.561Z,20.54
2022-07-26T21:20:44.276Z,20.53
2022-07-26T21:25:46.061Z,20.45
2022-07-26T21:30:49.394Z,20.35
2022-07-26T21:35:51.266Z,20.22
2022-07-26T21:40:53.178Z,20.16
2022-07-26T21:45:54.986Z,20.09
2022-07-26T21:50:58.437Z,20.08
2022-07-26T21:56:00.330Z,20.03
2022-07-26T22:01:06.215Z,19.96
2022-07-26T22:06:10.193Z,19.93
2022-07-26T22:11:12.446Z,19.96
2022-07-26T22:16:14.679Z,19.97
2022-07-26T22:21:16.345Z,19.94
2022-07-26T22:26:18.754Z,19.82
2022-07-26T22:31:20.664Z,19.76
2022-07-26T22:36:22.516Z,19.74
2022-07-26T22:41:24.297Z,19.73
2022-07-26T22:46:27.572Z,19.72
2022-07-26T22:51:30.910Z,19.37
2022-07-26T22:56:32.617Z,19.39
2022-07-26T23:01:34.263Z,19.43
2022-07-26T23:06:36.206Z,19.48
2022-07-26T23:11:38.356Z,19.45
2022-07-26T23:16:40.216Z,19.46
2022-07-26T23:21:48.200Z,19.43
2022-07-26T23:26:50.520Z,19.47
2022-07-26T23:31:52.582Z,19.48
2022-07-26T23:36:55.024Z,19.50
2022-07-26T23:41:56.988Z,19.33
2022-07-26T23:46:59.692Z,19.51
2022-07-26T23:52:01.774Z,19.50
2022-07-26T23:57:03.712Z,19.49
